Time;durP1;ratioP1;P1;durP2;ratioP2;P2;SDS_P1;SDS_P2;PMS_P1;PMS_P2;Temp;Humidity;BMP_temperature;BMP_pressure;BME280_temperature;BME280_humidity;BME280_pressure;Samples;Min_cycle;Max_cycle;Signal;HPM_P1;HPM_P2
2022/06/26 00:00:19;;;;;;;7.73;6.70;;;;;;;;;;5030021;28;21001;-70
2022/06/26 00:02:47;;;;;;;8.80;7.93;;;;;;;;;;5030317;28;20458;-70
2022/06/26 00:05:17;;;;;;;11.60;8.60;;;;;;;;;;5029568;28;20519;-70
2022/06/26 00:07:45;;;;;;;7.83;7.13;;;;;;;;;;5030193;28;20469;-70
2022/06/26 00:10:13;;;;;;;6.77;6.07;;;;;;;;;;5030017;28;20470;-70
2022/06/26 00:12:41;;;;;;;8.50;7.70;;;;;;;;;;5029828;28;20568;-70
2022/06/26 00:15:10;;;;;;;9.23;7.43;;;;;;;;;;5030394;28;20474;-70
2022/06/26 00:17:37;;;;;;;7.73;7.03;;;;;;;;;;5030198;28;20910;-70
2022/06/26 00:20:05;;;;;;;7.67;6.93;;;;;;;;;;5030958;28;20475;-70
2022/06/26 00:22:35;;;;;;;14.53;7.13;;;;;;;;;;5029871;28;20462;-70
2022/06/26 00:25:03;;;;;;;8.07;7.27;;;;;;;;;;5018790;28;20455;-70
2022/06/26 00:27:30;;;;;;;8.40;7.60;;;;;;;;;;5010513;28;20458;-70
2022/06/26 00:29:58;;;;;;;8.20;7.30;;;;;;;;;;5023149;28;20504;-70
2022/06/26 00:32:26;;;;;;;9.10;7.13;;;;;;;;;;5030337;28;20462;-70
2022/06/26 00:34:54;;;;;;;11.30;8.47;;;;;;;;;;5030352;28;20450;-70
2022/06/26 00:37:21;;;;;;;9.10;8.20;;;;;;;;;;5030132;28;20454;-70
2022/06/26 00:39:50;;;;;;;8.83;7.93;;;;;;;;;;5030194;28;20500;-70
2022/06/26 00:42:18;;;;;;;9.07;8.30;;;;;;;;;;5029067;28;20466;-70
2022/06/26 00:44:46;;;;;;;9.80;7.40;;;;;;;;;;5029734;28;20442;-70
2022/06/26 00:47:14;;;;;;;10.43;7.77;;;;;;;;;;5029892;28;20458;-70
2022/06/26 00:49:41;;;;;;;9.43;8.53;;;;;;;;;;5029081;28;20446;-69
2022/06/26 00:52:09;;;;;;;8.37;7.57;;;;;;;;;;5029891;28;20459;-70
2022/06/26 00:54:39;;;;;;;9.17;8.27;;;;;;;;;;5032357;28;20531;-70
2022/06/26 00:57:09;;;;;;;10.50;8.50;;;;;;;;;;5033377;28;20542;-69
2022/06/26 00:59:37;;;;;;;8.63;7.80;;;;;;;;;;5032359;28;20937;-70
2022/06/26 01:02:05;;;;;;;8.17;7.47;;;;;;;;;;5032898;28;20877;-70
2022/06/26 01:04:32;;;;;;;8.93;8.03;;;;;;;;;;5033128;28;20447;-69
2022/06/26 01:07:00;;;;;;;8.60;7.80;;;;;;;;;;5032417;28;20822;-70
2022/06/26 01:09:30;;;;;;;9.57;7.87;;;;;;;;;;5032762;28;20447;-69
2022/06/26 01:11:58;;;;;;;8.10;7.37;;;;;;;;;;5129004;27;20888;-70
2022/06/26 01:14:27;;;;;;;7.30;6.40;;;;;;;;;;5137594;27;20791;-70
2022/06/26 01:16:55;;;;;;;8.10;7.40;;;;;;;;;;5091651;27;20476;-70
2022/06/26 01:19:22;;;;;;;7.30;6.70;;;;;;;;;;5052605;28;20565;-70
2022/06/26 01:21:50;;;;;;;9.20;7.33;;;;;;;;;;5052076;28;20526;-70
2022/06/26 01:24:20;;;;;;;7.67;6.90;;;;;;;;;;5052885;28;20908;-70
2022/06/26 01:26:47;;;;;;;7.03;6.43;;;;;;;;;;5052681;28;20449;-70
2022/06/26 01:29:15;;;;;;;7.83;7.03;;;;;;;;;;5052847;27;20462;-70
2022/06/26 01:31:42;;;;;;;7.90;7.20;;;;;;;;;;5052758;28;20740;-70
2022/06/26 01:34:11;;;;;;;8.93;7.30;;;;;;;;;;5052771;28;20500;-70
2022/06/26 01:36:41;;;;;;;8.70;7.90;;;;;;;;;;5053366;28;20580;-69
2022/06/26 01:39:09;;;;;;;7.77;6.97;;;;;;;;;;5052138;28;20553;-70
2022/06/26 01:41:41;;;;;;;9.57;7.17;;;;;;;;;;5053297;28;20459;-70
2022/06/26 01:44:09;;;;;;;8.30;7.50;;;;;;;;;;5051843;28;20465;-70
2022/06/26 01:46:39;;;;;;;8.20;7.50;;;;;;;;;;5052028;28;20446;-70
2022/06/26 01:49:07;;;;;;;7.93;7.13;;;;;;;;;;5051998;28;20453;-70
2022/06/26 01:51:35;;;;;;;8.13;7.43;;;;;;;;;;5052310;28;20998;-70
2022/06/26 01:54:02;;;;;;;8.80;8.00;;;;;;;;;;5052023;28;20458;-70
2022/06/26 01:56:30;;;;;;;8.37;7.60;;;;;;;;;;5052143;28;20514;-70
2022/06/26 01:58:59;;;;;;;8.43;6.97;;;;;;;;;;5052023;27;20453;-69
2022/06/26 02:01:26;;;;;;;8.30;7.10;;;;;;;;;;5051455;28;20467;-70
2022/06/26 02:03:54;;;;;;;8.87;8.07;;;;;;;;;;5051488;28;20799;-70
2022/06/26 02:06:22;;;;;;;9.20;8.07;;;;;;;;;;5052272;28;20477;-69
2022/06/26 02:08:50;;;;;;;8.33;7.57;;;;;;;;;;5052844;28;20457;-69
2022/06/26 02:14:04;;;;;;;9.33;7.73;;;;;;;;;;5051411;28;20428;-70
2022/06/26 02:16:32;;;;;;;9.10;7.90;;;;;;;;;;5052221;28;20455;-69
2022/06/26 02:19:00;;;;;;;9.60;8.80;;;;;;;;;;5051043;28;20548;-70
2022/06/26 02:21:28;;;;;;;9.50;8.60;;;;;;;;;;5052316;28;20449;-69
2022/06/26 02:23:57;;;;;;;9.90;8.30;;;;;;;;;;5051762;28;20725;-70
2022/06/26 02:26:25;;;;;;;8.87;8.07;;;;;;;;;;5052623;28;20806;-70
2022/06/26 02:28:53;;;;;;;9.33;8.50;;;;;;;;;;5051759;28;20457;-70
2022/06/26 02:31:23;;;;;;;10.30;9.30;;;;;;;;;;5051402;28;20543;-69
2022/06/26 02:33:54;;;;;;;9.63;8.73;;;;;;;;;;5036683;28;20472;-70
2022/06/26 02:36:22;;;;;;;10.17;9.37;;;;;;;;;;5011507;28;20447;-70
2022/06/26 02:38:50;;;;;;;11.07;9.97;;;;;;;;;;5012642;28;20525;-69
2022/06/26 02:41:18;;;;;;;9.80;8.93;;;;;;;;;;5011552;28;20487;-71
2022/06/26 02:43:45;;;;;;;10.63;9.27;;;;;;;;;;5011923;28;20471;-69
2022/06/26 02:46:13;;;;;;;9.93;9.00;;;;;;;;;;5012099;28;20455;-70
2022/06/26 02:48:42;;;;;;;9.50;8.60;;;;;;;;;;5011506;28;20550;-70
2022/06/26 02:51:10;;;;;;;10.50;9.40;;;;;;;;;;5012001;28;20800;-71
2022/06/26 02:53:37;;;;;;;12.20;10.63;;;;;;;;;;5011931;28;20577;-70
2022/06/26 02:56:05;;;;;;;9.97;9.00;;;;;;;;;;5011940;28;20852;-70
2022/06/26 02:58:33;;;;;;;9.80;8.87;;;;;;;;;;5012093;28;20532;-69
2022/06/26 03:01:01;;;;;;;10.23;9.33;;;;;;;;;;5011604;28;20523;-70
2022/06/26 03:03:28;;;;;;;9.37;8.53;;;;;;;;;;5011304;28;20465;-70
2022/06/26 03:05:58;;;;;;;9.70;8.90;;;;;;;;;;5011934;28;20455;-69
2022/06/26 03:08:25;;;;;;;9.77;8.97;;;;;;;;;;5012352;28;20527;-69
2022/06/26 03:10:53;;;;;;;12.33;9.10;;;;;;;;;;5011678;28;20454;-70
2022/06/26 03:13:20;;;;;;;9.50;8.60;;;;;;;;;;5011378;28;20988;-70
2022/06/26 03:15:48;;;;;;;10.53;9.53;;;;;;;;;;5011418;28;20447;-70
2022/06/26 03:18:16;;;;;;;10.17;9.27;;;;;;;;;;5010944;28;20682;-69
2022/06/26 03:20:44;;;;;;;9.93;9.03;;;;;;;;;;5011182;28;20562;-69
2022/06/26 03:23:13;;;;;;;9.80;8.80;;;;;;;;;;5011143;28;20471;-70
2022/06/26 03:25:41;;;;;;;10.33;9.40;;;;;;;;;;5011717;28;20872;-69
2022/06/26 03:28:08;;;;;;;10.10;9.17;;;;;;;;;;5011592;28;20546;-70
2022/06/26 03:30:36;;;;;;;10.30;9.30;;;;;;;;;;5011191;28;20880;-69
2022/06/26 03:33:04;;;;;;;9.43;8.63;;;;;;;;;;5010590;28;20797;-70
2022/06/26 03:35:31;;;;;;;10.43;9.60;;;;;;;;;;5010665;28;20516;-69
2022/06/26 03:37:59;;;;;;;9.83;8.93;;;;;;;;;;5010904;28;20512;-70
2022/06/26 03:40:28;;;;;;;11.17;9.37;;;;;;;;;;5010719;28;20577;-70
2022/06/26 03:42:55;;;;;;;10.67;9.67;;;;;;;;;;5011095;28;20725;-70
2022/06/26 03:45:23;;;;;;;11.53;10.33;;;;;;;;;;5010757;28;20447;-69
2022/06/26 03:47:51;;;;;;;12.33;10.77;;;;;;;;;;5011724;28;20470;-70
2022/06/26 03:50:19;;;;;;;10.67;9.67;;;;;;;;;;5010616;28;20455;-69
2022/06/26 03:52:46;;;;;;;11.13;9.93;;;;;;;;;;5011006;28;21030;-70
2022/06/26 03:55:14;;;;;;;10.83;9.33;;;;;;;;;;5011506;28;20463;-70
2022/06/26 03:57:43;;;;;;;10.43;9.33;;;;;;;;;;5014240;28;20451;-70
2022/06/26 04:00:11;;;;;;;11.47;10.27;;;;;;;;;;5010446;28;20497;-69
2022/06/26 04:02:40;;;;;;;10.37;9.37;;;;;;;;;;5010301;28;20554;-70
2022/06/26 04:05:08;;;;;;;11.17;9.20;;;;;;;;;;5010477;28;20723;-70
2022/06/26 04:07:37;;;;;;;10.10;9.10;;;;;;;;;;5010720;28;20475;-69
2022/06/26 04:10:04;;;;;;;10.87;9.87;;;;;;;;;;5011233;28;20483;-70
2022/06/26 04:12:33;;;;;;;10.57;9.57;;;;;;;;;;5010624;28;20451;-69
2022/06/26 04:15:02;;;;;;;10.10;9.20;;;;;;;;;;5010565;28;20527;-70
2022/06/26 04:17:33;;;;;;;9.43;8.53;;;;;;;;;;5032984;28;20459;-70
2022/06/26 04:20:01;;;;;;;9.70;8.80;;;;;;;;;;5029297;28;20478;-69
2022/06/26 04:22:29;;;;;;;9.73;8.87;;;;;;;;;;5030709;28;20455;-70
2022/06/26 04:24:56;;;;;;;9.70;8.90;;;;;;;;;;5030046;28;20455;-70
2022/06/26 04:27:24;;;;;;;10.97;9.67;;;;;;;;;;5029987;28;20542;-70
2022/06/26 04:29:52;;;;;;;10.43;9.40;;;;;;;;;;5033167;28;20462;-70
2022/06/26 04:32:22;;;;;;;9.80;8.83;;;;;;;;;;5033345;28;20503;-70
2022/06/26 04:34:52;;;;;;;11.10;10.00;;;;;;;;;;5034373;28;20466;-69
2022/06/26 04:37:22;;;;;;;11.90;8.93;;;;;;;;;;5032538;28;20507;-69
2022/06/26 04:39:50;;;;;;;10.67;9.77;;;;;;;;;;5033047;28;20466;-70
2022/06/26 04:42:17;;;;;;;10.00;9.10;;;;;;;;;;5033369;28;20547;-70
2022/06/26 04:44:45;;;;;;;10.80;9.23;;;;;;;;;;5033316;28;20469;-70
2022/06/26 04:47:13;;;;;;;10.43;9.43;;;;;;;;;;5034222;28;20529;-70
2022/06/26 04:49:42;;;;;;;9.93;9.00;;;;;;;;;;5033104;28;20856;-70
2022/06/26 04:52:10;;;;;;;9.80;8.90;;;;;;;;;;5033947;28;20468;-71
2022/06/26 04:54:37;;;;;;;11.07;9.73;;;;;;;;;;5033056;28;20844;-71
2022/06/26 04:57:06;;;;;;;9.30;8.50;;;;;;;;;;5034398;28;20461;-71
2022/06/26 04:59:33;;;;;;;8.97;8.07;;;;;;;;;;5033323;28;20617;-71
2022/06/26 05:02:01;;;;;;;9.10;7.97;;;;;;;;;;5032781;28;20498;-70
2022/06/26 05:04:28;;;;;;;10.40;9.40;;;;;;;;;;5033170;28;20457;-71
2022/06/26 05:06:58;;;;;;;7.10;6.40;;;;;;;;;;5033101;28;20459;-71
2022/06/26 05:09:26;;;;;;;9.90;7.70;;;;;;;;;;5032403;28;20460;-71
2022/06/26 05:11:54;;;;;;;7.90;7.20;;;;;;;;;;5032736;28;20454;-71
2022/06/26 05:14:23;;;;;;;9.07;7.47;;;;;;;;;;5032330;28;20443;-71
2022/06/26 05:16:50;;;;;;;8.63;7.73;;;;;;;;;;5032824;28;20478;-69
2022/06/26 05:19:18;;;;;;;7.80;7.13;;;;;;;;;;5033063;28;20451;-70
2022/06/26 05:21:46;;;;;;;8.23;7.43;;;;;;;;;;5025232;28;20754;-70
2022/06/26 05:24:29;;;;;;;8.13;7.20;;;;;;;;;;5030227;28;20459;-68
2022/06/26 05:26:58;;;;;;;7.87;7.17;;;;;;;;;;5032508;28;20462;-72
2022/06/26 05:29:26;;;;;;;9.13;7.30;;;;;;;;;;5031818;28;20466;-69
2022/06/26 05:31:55;;;;;;;8.00;7.23;;;;;;;;;;5031530;28;20913;-68
2022/06/26 05:34:23;;;;;;;9.33;6.33;;;;;;;;;;5031481;28;20458;-70
2022/06/26 05:36:51;;;;;;;7.53;6.73;;;;;;;;;;5031875;28;20538;-71
2022/06/26 05:39:19;;;;;;;6.80;6.20;;;;;;;;;;5031912;28;20470;-71
2022/06/26 05:41:48;;;;;;;7.53;6.60;;;;;;;;;;5030926;28;20581;-71
2022/06/26 05:44:16;;;;;;;6.80;6.00;;;;;;;;;;5031029;28;20443;-71
2022/06/26 05:46:44;;;;;;;6.63;6.03;;;;;;;;;;5031325;28;20454;-71
2022/06/26 05:49:11;;;;;;;7.37;6.60;;;;;;;;;;5029195;28;20458;-71
2022/06/26 05:51:39;;;;;;;8.40;7.10;;;;;;;;;;5032327;28;20459;-70
2022/06/26 05:54:07;;;;;;;7.30;6.60;;;;;;;;;;5032455;28;20447;-71
2022/06/26 05:56:35;;;;;;;13.70;6.80;;;;;;;;;;5031203;28;20520;-70
2022/06/26 05:59:04;;;;;;;8.67;6.30;;;;;;;;;;5032304;28;20451;-70
2022/06/26 06:01:31;;;;;;;10.17;7.33;;;;;;;;;;5027618;28;20501;-70
2022/06/26 06:04:03;;;;;;;9.30;6.90;;;;;;;;;;5030706;28;20454;-70
2022/06/26 06:06:31;;;;;;;6.70;6.10;;;;;;;;;;5026882;28;20902;-71
2022/06/26 06:08:59;;;;;;;8.63;7.10;;;;;;;;;;5031203;28;20894;-70
2022/06/26 06:11:27;;;;;;;8.53;7.60;;;;;;;;;;5030166;28;20553;-70
2022/06/26 06:13:55;;;;;;;7.60;6.80;;;;;;;;;;5031337;28;20714;-70
2022/06/26 06:16:24;;;;;;;8.97;6.90;;;;;;;;;;5030818;28;20463;-71
2022/06/26 06:18:52;;;;;;;7.83;7.03;;;;;;;;;;5030988;28;20561;-70
2022/06/26 06:21:19;;;;;;;7.00;6.30;;;;;;;;;;5031070;28;20577;-71
2022/06/26 06:23:47;;;;;;;7.47;6.77;;;;;;;;;;5031458;28;20815;-71
2022/06/26 06:26:15;;;;;;;6.40;5.80;;;;;;;;;;5030166;28;20758;-71
2022/06/26 06:28:44;;;;;;;6.90;6.20;;;;;;;;;;5031881;28;20795;-70
2022/06/26 06:31:11;;;;;;;6.93;6.27;;;;;;;;;;5031696;28;20531;-70
2022/06/26 06:33:41;;;;;;;6.40;5.80;;;;;;;;;;5031805;28;20453;-70
2022/06/26 06:36:09;;;;;;;6.73;5.30;;;;;;;;;;5031859;28;20515;-70
2022/06/26 06:38:37;;;;;;;6.00;5.50;;;;;;;;;;5032640;28;21027;-70
2022/06/26 06:41:05;;;;;;;6.17;5.57;;;;;;;;;;5030802;28;20513;-70
2022/06/26 06:43:32;;;;;;;6.53;5.93;;;;;;;;;;5030902;28;20450;-70
2022/06/26 06:46:00;;;;;;;6.90;6.30;;;;;;;;;;5031434;28;20458;-70
2022/06/26 06:48:27;;;;;;;6.40;5.80;;;;;;;;;;5029945;28;20545;-70
2022/06/26 06:50:56;;;;;;;7.50;5.63;;;;;;;;;;5029765;28;20462;-70
2022/06/26 06:53:24;;;;;;;6.83;5.67;;;;;;;;;;5030440;28;20972;-70
2022/06/26 06:55:52;;;;;;;5.87;5.20;;;;;;;;;;5030395;28;20462;-70
2022/06/26 06:58:20;;;;;;;7.60;5.90;;;;;;;;;;5029949;28;20553;-70
2022/06/26 07:00:47;;;;;;;10.03;6.00;;;;;;;;;;5029487;28;20482;-70
2022/06/26 07:03:15;;;;;;;5.33;4.83;;;;;;;;;;5030650;28;20442;-70
2022/06/26 07:05:43;;;;;;;5.93;5.43;;;;;;;;;;5029151;28;20463;-70
2022/06/26 07:08:14;;;;;;;6.40;5.80;;;;;;;;;;5030205;28;20823;-70
2022/06/26 07:10:41;;;;;;;5.47;4.97;;;;;;;;;;5028695;28;20459;-70
2022/06/26 07:13:10;;;;;;;5.63;5.13;;;;;;;;;;5030120;28;20459;-70
2022/06/26 07:15:38;;;;;;;5.63;5.07;;;;;;;;;;5024907;28;20572;-70
2022/06/26 07:18:06;;;;;;;6.00;5.50;;;;;;;;;;5027980;28;20557;-70
2022/06/26 07:20:34;;;;;;;6.10;5.20;;;;;;;;;;5029248;28;20457;-70
2022/06/26 07:23:02;;;;;;;5.10;4.60;;;;;;;;;;5029237;28;20754;-70
2022/06/26 07:25:31;;;;;;;5.27;4.77;;;;;;;;;;5029209;28;20457;-70
2022/06/26 07:27:58;;;;;;;6.73;4.00;;;;;;;;;;5028893;28;20459;-70
2022/06/26 07:30:26;;;;;;;7.00;4.27;;;;;;;;;;5028922;28;20517;-70
2022/06/26 07:32:54;;;;;;;4.80;3.97;;;;;;;;;;5029046;28;20526;-70
2022/06/26 07:35:21;;;;;;;4.17;3.70;;;;;;;;;;5028674;28;20482;-70
2022/06/26 07:37:49;;;;;;;5.40;4.90;;;;;;;;;;5029009;28;20454;-70
2022/06/26 07:40:20;;;;;;;7.17;6.47;;;;;;;;;;5030250;28;20454;-71
2022/06/26 07:42:52;;;;;;;5.10;4.40;;;;;;;;;;5025960;28;20521;-71
2022/06/26 07:45:20;;;;;;;5.83;3.60;;;;;;;;;;5029219;28;20511;-71
2022/06/26 07:47:48;;;;;;;6.70;3.63;;;;;;;;;;5029214;28;20550;-70
2022/06/26 07:50:15;;;;;;;7.03;5.80;;;;;;;;;;5028337;28;20500;-70
2022/06/26 07:52:43;;;;;;;3.83;3.30;;;;;;;;;;5029043;28;20611;-69
2022/06/26 07:55:11;;;;;;;4.60;3.00;;;;;;;;;;5028580;28;20463;-71
2022/06/26 07:57:41;;;;;;;4.23;3.40;;;;;;;;;;5028660;28;20492;-71
2022/06/26 08:00:14;;;;;;;4.00;2.90;;;;;;;;;;5029033;28;20453;-71
2022/06/26 08:02:42;;;;;;;5.53;3.27;;;;;;;;;;5029856;28;20488;-71
2022/06/26 08:05:11;;;;;;;3.30;3.00;;;;;;;;;;5031280;28;20783;-71
2022/06/26 08:07:39;;;;;;;3.77;3.10;;;;;;;;;;5031809;28;20465;-71
2022/06/26 08:10:07;;;;;;;3.73;2.87;;;;;;;;;;5044223;27;20538;-71
2022/06/26 08:12:35;;;;;;;4.53;2.93;;;;;;;;;;5032122;28;20878;-71
2022/06/26 08:15:04;;;;;;;5.13;2.97;;;;;;;;;;5031464;28;20451;-71
2022/06/26 08:17:33;;;;;;;4.70;3.10;;;;;;;;;;5030812;28;20882;-71
2022/06/26 08:20:00;;;;;;;3.77;2.70;;;;;;;;;;5030776;28;20457;-71
2022/06/26 08:22:28;;;;;;;3.67;2.57;;;;;;;;;;5032892;28;20493;-71
2022/06/26 08:24:56;;;;;;;4.57;3.67;;;;;;;;;;5023265;28;20444;-71
2022/06/26 08:27:24;;;;;;;2.97;2.53;;;;;;;;;;5030949;28;20814;-71
2022/06/26 08:29:51;;;;;;;3.40;2.40;;;;;;;;;;5030045;28;20561;-71
2022/06/26 08:32:21;;;;;;;6.30;2.80;;;;;;;;;;5031632;28;20946;-71
2022/06/26 08:34:50;;;;;;;4.23;3.07;;;;;;;;;;5030537;28;20718;-71
2022/06/26 08:37:18;;;;;;;3.10;2.80;;;;;;;;;;5030450;28;20462;-71
2022/06/26 08:39:46;;;;;;;6.73;3.60;;;;;;;;;;5030705;28;20515;-71
2022/06/26 08:42:14;;;;;;;5.83;3.00;;;;;;;;;;5030912;28;20600;-71
2022/06/26 08:44:44;;;;;;;3.90;2.70;;;;;;;;;;5029941;28;20905;-71
2022/06/26 08:47:13;;;;;;;3.00;2.60;;;;;;;;;;5029215;28;20470;-72
2022/06/26 08:49:42;;;;;;;2.90;2.60;;;;;;;;;;5033276;28;20447;-71
2022/06/26 08:52:14;;;;;;;3.80;2.10;;;;;;;;;;5030085;28;20452;-71
2022/06/26 08:54:42;;;;;;;3.40;3.10;;;;;;;;;;5030362;28;20454;-71
2022/06/26 08:57:10;;;;;;;3.97;2.73;;;;;;;;;;5027971;28;20460;-71
2022/06/26 08:59:40;;;;;;;3.80;3.40;;;;;;;;;;5029048;28;20962;-71
2022/06/26 09:02:08;;;;;;;3.00;2.67;;;;;;;;;;5030204;28;20482;-71
2022/06/26 09:04:37;;;;;;;4.10;2.60;;;;;;;;;;5024121;28;20476;-71
2022/06/26 09:07:07;;;;;;;2.50;2.20;;;;;;;;;;5029903;28;20499;-71
2022/06/26 09:09:39;;;;;;;3.63;3.10;;;;;;;;;;5028885;28;20447;-71
2022/06/26 09:12:08;;;;;;;3.17;2.27;;;;;;;;;;5028693;28;20439;-72
2022/06/26 09:14:36;;;;;;;4.20;2.80;;;;;;;;;;5029310;28;20443;-72
2022/06/26 09:17:05;;;;;;;4.13;2.80;;;;;;;;;;5029323;28;20728;-72
2022/06/26 09:19:36;;;;;;;3.20;2.00;;;;;;;;;;5030158;28;20469;-71
2022/06/26 09:22:07;;;;;;;4.27;2.60;;;;;;;;;;5027828;28;20474;-71
2022/06/26 09:24:36;;;;;;;3.20;2.30;;;;;;;;;;5029331;28;20466;-72
2022/06/26 09:27:07;;;;;;;3.60;1.77;;;;;;;;;;5029338;28;20462;-72
2022/06/26 09:29:35;;;;;;;2.47;1.77;;;;;;;;;;5029665;28;20474;-72
2022/06/26 09:32:13;;;;;;;3.10;2.03;;;;;;;;;;5030025;28;20922;-72
2022/06/26 09:34:45;;;;;;;5.20;1.90;;;;;;;;;;5022497;28;20469;-71
2022/06/26 09:37:12;;;;;;;3.13;2.00;;;;;;;;;;5029035;28;20455;-73
2022/06/26 09:39:42;;;;;;;2.90;2.37;;;;;;;;;;5030435;28;20462;-72
2022/06/26 09:42:22;;;;;;;3.27;2.30;;;;;;;;;;5030065;28;20553;-72
2022/06/26 09:44:50;;;;;;;3.97;2.30;;;;;;;;;;5032569;28;20471;-73
2022/06/26 09:47:25;;;;;;;4.83;2.07;;;;;;;;;;5030715;28;20515;-72
2022/06/26 09:49:53;;;;;;;2.90;1.97;;;;;;;;;;5029211;28;20542;-72
2022/06/26 09:52:22;;;;;;;3.70;2.00;;;;;;;;;;5030354;28;20474;-73
2022/06/26 09:54:51;;;;;;;2.27;1.50;;;;;;;;;;5029727;28;20792;-73
2022/06/26 09:57:20;;;;;;;3.40;1.93;;;;;;;;;;5030128;28;21108;-71
2022/06/26 09:59:48;;;;;;;3.47;2.00;;;;;;;;;;5030991;28;20446;-70
2022/06/26 10:07:50;;;;;;;4.37;2.40;;;;;;;;;;5030129;28;20429;-71
2022/06/26 10:10:19;;;;;;;3.03;2.03;;;;;;;;;;5029048;28;20467;-71
2022/06/26 10:12:52;;;;;;;3.27;2.00;;;;;;;;;;5030251;28;20537;-70
2022/06/26 10:15:21;;;;;;;3.00;2.27;;;;;;;;;;5028882;28;20890;-71
2022/06/26 10:17:57;;;;;;;3.20;2.10;;;;;;;;;;5029810;28;20468;-69
2022/06/26 10:20:25;;;;;;;3.43;2.10;;;;;;;;;;5028920;28;20446;-70
2022/06/26 10:22:53;;;;;;;3.10;1.97;;;;;;;;;;5029466;28;20539;-70
2022/06/26 10:25:28;;;;;;;2.67;1.80;;;;;;;;;;5028593;28;20511;-70
2022/06/26 10:27:57;;;;;;;3.10;1.90;;;;;;;;;;5028876;28;20466;-70
2022/06/26 10:30:28;;;;;;;2.87;2.17;;;;;;;;;;5028651;28;20588;-70
2022/06/26 10:33:08;;;;;;;3.17;1.87;;;;;;;;;;5028961;28;20746;-71
2022/06/26 10:35:40;;;;;;;3.67;2.23;;;;;;;;;;5029109;28;20446;-71
2022/06/26 10:38:24;;;;;;;4.80;3.30;;;;;;;;;;5028703;28;20542;-69
2022/06/26 10:43:44;;;;;;;2.57;2.30;;;;;;;;;;5011885;28;20470;-70
2022/06/26 10:46:15;;;;;;;3.20;2.30;;;;;;;;;;5022158;28;20550;-70
2022/06/26 10:48:51;;;;;;;2.87;2.50;;;;;;;;;;5037749;28;20473;-70
2022/06/26 10:51:27;;;;;;;2.70;2.20;;;;;;;;;;5049517;27;21089;-73
2022/06/26 10:54:06;;;;;;;3.13;2.73;;;;;;;;;;5029496;28;20506;-73
2022/06/26 10:56:35;;;;;;;4.87;2.20;;;;;;;;;;5029554;28;20450;-73
2022/06/26 10:59:08;;;;;;;3.73;2.23;;;;;;;;;;5029156;28;20723;-70
2022/06/26 11:01:37;;;;;;;2.80;2.17;;;;;;;;;;5029756;28;20465;-71
2022/06/26 11:04:08;;;;;;;3.90;2.37;;;;;;;;;;5035579;28;21033;-72
2022/06/26 11:06:42;;;;;;;3.07;2.70;;;;;;;;;;5051032;28;20803;-71
2022/06/26 11:09:16;;;;;;;3.17;2.40;;;;;;;;;;5049492;28;20553;-73
2022/06/26 11:11:54;;;;;;;3.73;2.57;;;;;;;;;;5029172;28;20469;-71
2022/06/26 11:14:23;;;;;;;3.20;2.70;;;;;;;;;;5030125;28;20465;-71
2022/06/26 11:16:54;;;;;;;2.73;2.10;;;;;;;;;;5028990;28;20501;-72
2022/06/26 11:19:23;;;;;;;3.00;2.03;;;;;;;;;;5029243;28;20446;-71
2022/06/26 11:21:52;;;;;;;2.70;2.10;;;;;;;;;;5028960;28;20541;-71
2022/06/26 11:24:20;;;;;;;3.10;2.00;;;;;;;;;;5029411;28;20454;-71
2022/06/26 11:26:48;;;;;;;4.67;2.10;;;;;;;;;;5028644;28;21129;-72
2022/06/26 11:29:16;;;;;;;3.40;2.10;;;;;;;;;;5046849;27;20454;-72
2022/06/26 11:34:32;;;;;;;6.60;2.20;;;;;;;;;;5013557;28;20472;-72
2022/06/26 11:37:02;;;;;;;2.53;2.07;;;;;;;;;;5027436;28;20451;-72
2022/06/26 11:39:38;;;;;;;2.87;2.00;;;;;;;;;;5028195;28;20447;-72
2022/06/26 11:42:14;;;;;;;3.00;1.90;;;;;;;;;;5029027;28;20803;-70
2022/06/26 11:44:50;;;;;;;6.30;2.10;;;;;;;;;;5027265;28;20481;-70
2022/06/26 11:47:19;;;;;;;3.70;2.20;;;;;;;;;;5028307;28;20537;-70
2022/06/26 11:49:52;;;;;;;5.10;2.10;;;;;;;;;;5027895;28;20490;-70
2022/06/26 11:52:19;;;;;;;3.00;2.17;;;;;;;;;;5028747;28;20494;-70
2022/06/26 11:54:47;;;;;;;3.50;2.23;;;;;;;;;;5027761;28;20450;-71
2022/06/26 11:57:20;;;;;;;4.20;2.20;;;;;;;;;;5029141;28;20466;-73
2022/06/26 11:59:48;;;;;;;3.23;2.20;;;;;;;;;;5019270;28;20515;-71
2022/06/26 12:02:21;;;;;;;3.77;2.50;;;;;;;;;;5025663;28;20902;-71
2022/06/26 12:04:59;;;;;;;6.30;2.60;;;;;;;;;;5018897;28;20458;-72
2022/06/26 12:07:27;;;;;;;4.73;1.70;;;;;;;;;;5017142;28;20509;-72
2022/06/26 12:09:55;;;;;;;2.87;2.43;;;;;;;;;;5009139;28;20463;-72
2022/06/26 12:12:28;;;;;;;4.00;1.70;;;;;;;;;;5016856;28;20473;-72
2022/06/26 12:14:57;;;;;;;2.53;2.00;;;;;;;;;;5015218;28;20848;-71
2022/06/26 12:17:30;;;;;;;2.67;2.33;;;;;;;;;;5017635;28;20473;-71
2022/06/26 12:20:06;;;;;;;2.43;1.77;;;;;;;;;;5011396;28;20522;-71
2022/06/26 12:22:35;;;;;;;3.63;2.10;;;;;;;;;;5011884;28;20490;-71
2022/06/26 12:25:04;;;;;;;3.50;1.90;;;;;;;;;;5021772;28;20455;-71
2022/06/26 12:27:36;;;;;;;2.60;1.90;;;;;;;;;;5018454;28;20464;-71
2022/06/26 12:30:04;;;;;;;2.80;2.30;;;;;;;;;;5014737;28;20471;-71
2022/06/26 12:32:33;;;;;;;3.57;1.80;;;;;;;;;;5017809;28;20453;-71
2022/06/26 12:35:02;;;;;;;2.27;1.83;;;;;;;;;;5028087;28;21127;-72
2022/06/26 12:37:29;;;;;;;2.70;2.30;;;;;;;;;;5009474;28;20439;-69
2022/06/26 12:39:57;;;;;;;10.93;2.57;;;;;;;;;;5019815;28;20464;-70
2022/06/26 12:42:25;;;;;;;2.57;2.10;;;;;;;;;;5021340;28;20957;-70
2022/06/26 12:44:53;;;;;;;3.00;2.20;;;;;;;;;;5057602;28;20463;-70
2022/06/26 12:47:21;;;;;;;2.70;2.20;;;;;;;;;;5008271;28;20544;-70
2022/06/26 12:49:51;;;;;;;3.27;2.30;;;;;;;;;;5016988;28;20541;-70
2022/06/26 12:52:21;;;;;;;3.83;2.30;;;;;;;;;;5019078;27;20836;-70
2022/06/26 12:54:48;;;;;;;2.80;2.23;;;;;;;;;;5012822;28;20470;-72
2022/06/26 12:57:19;;;;;;;3.93;2.70;;;;;;;;;;5024351;27;20575;-72
2022/06/26 12:59:47;;;;;;;3.80;2.33;;;;;;;;;;5029939;28;20468;-70
2022/06/26 13:02:15;;;;;;;4.53;2.67;;;;;;;;;;5023013;28;20583;-70
2022/06/26 13:04:42;;;;;;;4.47;2.47;;;;;;;;;;5040766;28;20469;-70
2022/06/26 13:07:13;;;;;;;3.03;2.50;;;;;;;;;;5029945;27;20456;-71
2022/06/26 13:09:41;;;;;;;5.10;2.70;;;;;;;;;;5019195;27;20460;-71
2022/06/26 13:12:09;;;;;;;3.30;2.40;;;;;;;;;;5014025;28;20749;-70
2022/06/26 13:14:37;;;;;;;4.90;3.30;;;;;;;;;;5024646;28;20528;-73
2022/06/26 13:17:04;;;;;;;3.70;2.63;;;;;;;;;;5028835;28;20549;-72
2022/06/26 13:19:32;;;;;;;4.03;3.00;;;;;;;;;;5024700;28;20456;-72
2022/06/26 13:22:00;;;;;;;3.30;2.93;;;;;;;;;;5026036;28;20447;-71
2022/06/26 13:24:29;;;;;;;6.80;2.70;;;;;;;;;;5023917;28;20486;-72
2022/06/26 13:26:57;;;;;;;4.47;2.93;;;;;;;;;;5022317;27;20454;-72
2022/06/26 13:29:25;;;;;;;6.47;3.20;;;;;;;;;;5026715;27;20486;-71
2022/06/26 13:31:53;;;;;;;9.10;3.00;;;;;;;;;;5022648;28;20448;-73
2022/06/26 13:34:21;;;;;;;3.60;2.97;;;;;;;;;;5013199;28;20965;-73
2022/06/26 13:36:49;;;;;;;3.10;2.77;;;;;;;;;;5015881;28;20466;-73
2022/06/26 13:39:17;;;;;;;4.90;3.23;;;;;;;;;;5019045;28;20759;-73
2022/06/26 13:41:50;;;;;;;5.40;2.67;;;;;;;;;;5011425;28;20768;-72
2022/06/26 13:44:18;;;;;;;3.47;3.03;;;;;;;;;;5019785;28;20478;-72
2022/06/26 13:46:46;;;;;;;4.60;3.10;;;;;;;;;;5027078;28;20454;-72
2022/06/26 13:49:14;;;;;;;3.63;3.20;;;;;;;;;;5014024;28;20467;-71
2022/06/26 13:51:42;;;;;;;3.97;3.30;;;;;;;;;;5017138;28;20920;-71
2022/06/26 13:54:10;;;;;;;7.30;3.20;;;;;;;;;;5027517;27;20459;-71
2022/06/26 13:56:37;;;;;;;4.33;3.10;;;;;;;;;;5014721;28;20461;-71
2022/06/26 13:59:07;;;;;;;3.83;3.40;;;;;;;;;;5023840;27;20454;-71
2022/06/26 14:01:34;;;;;;;5.30;3.57;;;;;;;;;;5025848;28;20455;-70
2022/06/26 14:04:08;;;;;;;4.13;3.20;;;;;;;;;;5024987;28;20489;-70
2022/06/26 14:06:39;;;;;;;6.13;4.43;;;;;;;;;;5018951;28;20530;-71
2022/06/26 14:09:06;;;;;;;4.33;3.27;;;;;;;;;;5017398;28;20480;-70
2022/06/26 14:11:34;;;;;;;6.20;3.97;;;;;;;;;;5027531;28;20555;-69
2022/06/26 14:14:02;;;;;;;3.57;3.27;;;;;;;;;;5021538;28;20831;-69
2022/06/26 14:16:36;;;;;;;4.80;3.60;;;;;;;;;;5018891;28;20512;-70
2022/06/26 14:19:04;;;;;;;4.30;3.90;;;;;;;;;;5014064;27;20501;-70
2022/06/26 14:21:32;;;;;;;4.17;3.77;;;;;;;;;;5017675;28;21014;-69
2022/06/26 14:26:59;;;;;;;7.70;4.80;;;;;;;;;;5018696;28;20730;-70
2022/06/26 14:29:28;;;;;;;5.57;4.50;;;;;;;;;;5026499;28;20759;-70
2022/06/26 14:32:00;;;;;;;4.87;4.40;;;;;;;;;;5009253;28;20464;-70
2022/06/26 14:34:28;;;;;;;5.13;4.57;;;;;;;;;;5015106;28;20502;-69
2022/06/26 14:36:56;;;;;;;6.80;3.70;;;;;;;;;;5021564;28;21068;-70
2022/06/26 14:39:24;;;;;;;5.00;4.50;;;;;;;;;;5012400;28;20466;-69
2022/06/26 14:41:52;;;;;;;4.53;3.97;;;;;;;;;;5008937;28;20473;-70
2022/06/26 14:44:19;;;;;;;6.03;4.43;;;;;;;;;;5016572;28;20574;-71
2022/06/26 14:46:49;;;;;;;6.43;4.57;;;;;;;;;;5021966;28;20466;-71
2022/06/26 14:49:20;;;;;;;5.10;4.60;;;;;;;;;;5022950;28;20739;-70
2022/06/26 14:51:49;;;;;;;4.67;3.83;;;;;;;;;;5025135;27;20454;-71
2022/06/26 14:54:16;;;;;;;4.97;4.57;;;;;;;;;;5017602;28;20539;-71
2022/06/26 14:56:44;;;;;;;6.00;5.07;;;;;;;;;;5026844;28;20473;-71
2022/06/26 14:59:13;;;;;;;19.83;13.20;;;;;;;;;;5008202;28;20490;-71
2022/06/26 15:01:41;;;;;;;5.73;4.23;;;;;;;;;;5008969;28;20464;-71
2022/06/26 15:04:09;;;;;;;4.90;4.07;;;;;;;;;;5008685;28;20490;-71
2022/06/26 15:06:38;;;;;;;6.37;4.07;;;;;;;;;;5059254;27;20787;-71